x

Virginia Beach 64 Nm East Of Virginia Beach, Va (44014) Wave Buoy

11:50 - Thu 8th Dec 2016 All times are EST. -5 hours from GMT.

  • Sig Wave height 5.2ft
  • Swell Direction
  • Peak Period 5s
  • Average Period 5s
  • Wind
    25mph, 31mph gusts
  • Sea Temp 58°f
  • Aire Temp 50°f
  • Sea Pressure 1018.6mb
  • Virginia Beach 64 Nm East Of Virginia Beach, Va
  • Virginia Beach 64 Nm East Of Virginia Beach, Va

More Historic Weather Station data

Upgrade to MSW Pro to gain access to the past 30 days of data for over 8000 Wavebouys and Weather Stations around the globe.

Join Pro

Comparision Forecast

View Surf forecast
   
jue 12/08 11:50 5ft 5s 5s 25 31 mph 1018.6mb 58f 50f
10:50 5ft 5s 4s 25 29 mph 1018.8mb 58f 50f
9:50 4.5ft 4s 4s 22 29 mph 1018.5mb 58f 50f
8:50 4.5ft 5s 4s 22 27 mph 1018.2mb 58f 50f
7:50 4.5ft 5s 4s 22 27 mph 1017.9mb 59f 50f
6:50 4.5ft 4s 4s 20 25 mph 1017.7mb 59f 51f
5:50 4.5ft 4s 4s 22 27 mph 1016.9mb 59f 51f
4:50 4ft 8s 4s 25 29 mph 1015.5mb 59f 51f
3:50 3.5ft 11s 5s 25 29 mph 1014.2mb 59f 51f
2:50 3.5ft 9s 6s 18 22 mph 1014mb 59f 53f
1:50 3.5ft 8s 7s 13 18 mph 1014.4mb 59f 52f
12:50 4ft 9s 7s 9 13 mph 1014.7mb 59f 54f
11:50 3.5ft 10s 7s 7 9 mph 1015.5mb 59f 53f
10:50 4.5ft 10s 7s 7 9 mph 1016.9mb 59f 53f
9:50 4ft 10s 7s 4 9 mph 1017.3mb 59f 53f
8:50 3.5ft 8s 6s 4 9 mph 1017.6mb 58f 53f
7:50 4.5ft 8s 7s 2 4 mph 1017.2mb 58f 52f
6:50 4.5ft 10s 7s 4 7 mph 1016.8mb 58f 52f
5:50 4.5ft 9s 7s 7 9 mph 1017mb 58f 51f
4:50 5ft 10s 7s 9 11 mph 1016.9mb 58f 51f
3:50 5ft 11s 7s 9 13 mph 1017mb 58f 51f
2:50 5.5ft 8s 7s 9 13 mph 1016.9mb 58f 52f
mié 12/07 11:50 6ft 9s 6s 11 13 mph 1017.4mb 58f 52f
10:50 6.5ft 9s 6s 13 16 mph 1018mb 58f 53f
9:50 7.5ft 9s 7s 11 16 mph 1017.9mb 58f 53f
8:50 7ft 11s 7s 13 16 mph 1018mb 58f 53f
7:50 7ft 10s 7s 18 22 mph 1018.1mb 59f 53f
6:50 8ft 12s 7s 13 18 mph 1017.7mb 59f 53f
5:50 7ft 9s 6s 11 16 mph 1017.5mb 59f 52f
4:50 7ft 10s 6s 16 20 mph 1016.8mb 59f 52f
3:50 7.5ft 10s 6s 16 20 mph 1016mb 59f 53f
2:50 8ft 10s 6s 16 20 mph 1015mb 59f 52f
1:50 8ft 11s 6s 20 22 mph 1014.2mb 59f 52f
12:50 7.5ft 11s 6s 20 25 mph 1014.1mb 59f 52f
11:50 7.5ft 10s 5s 22 27 mph 1014.3mb 59f 52f
10:50 8.5ft 6s 6s 22 29 mph 1014.6mb 59f 51f
9:50 9.5ft 8s 6s 25 29 mph 1014.5mb 59f 52f
8:50 9.5ft 9s 6s 27 31 mph 1013.3mb 59f 53f
7:50 10ft 8s 6s 27 31 mph 1012mb 59f 53f
6:50 10ft 6s 6s 29 36 mph 1010.6mb 59f 53f
5:50 10ft 8s 6s 31 36 mph 1009.5mb 59f 54f
4:50 10.5ft 7s 6s 29 38 mph 1007.5mb 59f 54f
3:50 11ft 7s 6s 31 36 mph 1006.2mb 59f 54f
2:50 11ft 7s 6s 36 43 mph 1005.2mb 59f 54f
1:50 11ft 7s 6s 34 40 mph 1003.7mb 60f 54f
12:50 11ft 11s 6s 36 45 mph 1001.8mb 60f 55f
mar 12/06 11:50 10ft 9s 6s 31 43 mph 1001.1mb 60f 55f
10:50 11ft 9s 7s 34 40 mph 1000.5mb 60f 55f
9:50 11.5ft 9s 7s 20 27 mph 999.1mb 60f 60f
8:50 12.5ft 8s 7s 29 40 mph 998mb 60f 66f
7:50 12.5ft 8s 7s 34 51 mph 998.3mb 60f 65f
6:50 11ft 8s 6s 20 25 mph 1000.8mb 60f 64f
5:50 10.5ft 7s 6s 29 36 mph 1000.7mb 60f 64f
4:50 10ft 7s 6s 29 36 mph 1002.5mb 60f 64f
3:50 9ft 7s 6s 29 38 mph 1003mb 60f 63f
2:50 9ft 6s 6s 31 38 mph 1005mb 60f 62f
1:50 8ft 7s 6s 25 31 mph 1008.1mb 60f 61f
12:50 7.5ft 6s 5s 22 27 mph 1010mb 60f 60f
11:50 6.5ft 8s 5s 22 29 mph 1011.8mb 60f 59f
10:50 7ft 8s 5s 25 29 mph 1013.1mb 60f 59f
9:50 6ft 8s 5s 25 29 mph 1014.5mb 60f 58f
8:50 6ft 8s 5s 27 31 mph 1014.9mb 60f 57f
7:50 6ft 8s 5s 25 31 mph 1015.9mb 60f 56f
6:50 5ft 9s 5s 20 27 mph 1016.6mb 60f 56f
5:50 5ft 8s 5s 20 25 mph 1016.7mb 60f 55f
4:50 5.5ft 8s 6s 13 18 mph 1018.3mb 60f 55f
3:50 5.5ft 8s 5s 13 18 mph 1018.4mb 60f 55f
2:50 5.5ft 8s 5s 20 22 mph 1017.2mb 60f 55f
1:50 5ft 8s 5s 16 20 mph 1017.7mb 60f 54f
12:50 5ft 9s 5s 16 18 mph 1018mb 60f 54f
lun 12/05 11:50 5ft 6s 5s 16 20 mph 1018.2mb 60f 54f
10:50 5.5ft 6s 5s 18 22 mph 1017.8mb 60f 54f
9:50 6ft 6s 5s 22 27 mph 1017.3mb 60f 53f
8:50 6ft 6s 5s 20 25 mph 1017.2mb 60f 54f
7:50 6ft 5s 5s 20 25 mph 1017.3mb 60f 54f
6:50 6ft 6s 5s 22 27 mph 1016.1mb 60f 54f
5:50 6ft 5s 5s 22 29 mph 1015.4mb 60f 53f
4:50 6ft 5s 5s 25 27 mph 1015.3mb 60f 53f
3:50 6ft 5s 5s 25 31 mph 1014.7mb 60f 52f
2:50 5ft 5s 4s 27 31 mph 1014.2mb 60f 53f
1:50 5ft 5s 4s 25 29 mph 1013.5mb 60f 55f
12:50 4.5ft 5s 4s 20 27 mph 1013.6mb 60f 56f
11:50 5ft 5s 4s 20 25 mph 1013.3mb 60f 56f
10:50 5ft 5s 4s 22 27 mph 1013mb 60f 56f
9:50 4.5ft 4s 4s 25 29 mph 1013.2mb 60f 56f
8:50 3.5ft 9s 4s 25 27 mph 1012.7mb 60f 56f
7:50 3ft 9s 4s 25 29 mph 1012.5mb 60f 56f
6:50 2.5ft 8s 4s 11 20 mph 1012.4mb 60f 61f